Time;durP1;ratioP1;P1;durP2;ratioP2;P2;SDS_P1;SDS_P2;PMS_P1;PMS_P2;Temp;Humidity;BMP_temperature;BMP_pressure;BME280_temperature;BME280_humidity;BME280_pressure;Samples;Min_cycle;Max_cycle;Signal;HPM_P1;HPM_P2
2022/04/01 00:00:19;;;;;;;13.70;11.63;;;3.60;99.90;;;;;;494016;241;27500;-72
2022/04/01 00:02:20;;;;;;;16.52;13.02;;;3.50;99.90;;;;;;494009;241;27439;-71
2022/04/01 00:04:21;;;;;;;15.55;12.23;;;3.50;99.90;;;;;;494027;241;27916;-72
2022/04/01 00:06:22;;;;;;;14.85;12.37;;;3.60;99.90;;;;;;494078;241;27995;-73
2022/04/01 00:08:23;;;;;;;14.70;11.82;;;3.60;99.90;;;;;;494073;241;27446;-71
2022/04/01 00:10:26;;;;;;;16.12;12.30;;;3.60;99.90;;;;;;494042;241;27547;-72
2022/04/01 00:12:26;;;;;;;13.20;10.90;;;3.60;99.90;;;;;;493944;241;27453;-71
2022/04/01 00:14:27;;;;;;;13.05;10.68;;;3.70;99.90;;;;;;494023;241;27494;-72
2022/04/01 00:16:28;;;;;;;13.38;11.20;;;3.70;99.90;;;;;;494041;241;27493;-73
2022/04/01 00:18:30;;;;;;;12.40;10.60;;;3.70;99.90;;;;;;494043;241;27898;-72
2022/04/01 00:20:31;;;;;;;13.55;11.15;;;3.60;99.90;;;;;;493984;241;28018;-72
2022/04/01 00:22:32;;;;;;;13.90;11.23;;;3.60;99.90;;;;;;493998;241;27620;-71
2022/04/01 00:24:33;;;;;;;12.98;10.95;;;3.60;99.90;;;;;;494023;241;27582;-71
2022/04/01 00:26:35;;;;;;;12.65;10.50;;;3.70;99.90;;;;;;494028;241;27489;-72
2022/04/01 00:28:36;;;;;;;13.18;10.60;;;3.60;99.90;;;;;;494001;241;27466;-71
2022/04/01 00:30:39;;;;;;;13.85;10.50;;;3.70;99.90;;;;;;493988;241;27493;-72
2022/04/01 00:32:38;;;;;;;13.10;10.90;;;3.60;99.90;;;;;;493904;241;28164;-74
2022/04/01 00:34:40;;;;;;;14.85;11.75;;;3.60;99.90;;;;;;494010;241;27938;-72
2022/04/01 00:36:41;;;;;;;13.75;11.07;;;3.60;99.90;;;;;;493989;241;27508;-72
2022/04/01 00:38:42;;;;;;;13.60;10.40;;;3.60;99.90;;;;;;493977;241;27533;-71
2022/04/01 00:40:44;;;;;;;12.90;10.32;;;3.60;99.90;;;;;;493964;241;27506;-72
2022/04/01 00:42:45;;;;;;;14.35;10.82;;;3.60;99.90;;;;;;494017;241;27850;-73
2022/04/01 00:44:46;;;;;;;16.83;11.30;;;3.60;99.90;;;;;;494010;241;27462;-72
2022/04/01 00:46:47;;;;;;;14.43;10.82;;;3.50;99.90;;;;;;493978;241;27962;-72
2022/04/01 00:48:49;;;;;;;14.85;12.05;;;3.50;99.90;;;;;;493967;241;29007;-72
2022/04/01 00:50:50;;;;;;;14.98;12.35;;;3.50;99.90;;;;;;493961;241;27505;-72
2022/04/01 00:52:52;;;;;;;18.25;13.18;;;3.40;99.90;;;;;;493976;241;27517;-74
2022/04/01 00:54:52;;;;;;;14.80;11.95;;;3.40;99.90;;;;;;493938;241;27528;-72
2022/04/01 00:56:54;;;;;;;16.87;13.10;;;3.40;99.90;;;;;;493964;241;27501;-72
2022/04/01 00:58:55;;;;;;;13.00;11.60;;;3.40;99.90;;;;;;493974;241;27450;-71
2022/04/01 01:00:56;;;;;;;14.75;12.37;;;3.50;99.90;;;;;;493947;241;27500;-72
2022/04/01 01:02:58;;;;;;;17.12;12.73;;;3.40;99.90;;;;;;493977;241;28009;-73
2022/04/01 01:04:59;;;;;;;17.52;13.15;;;3.40;99.90;;;;;;493960;241;27899;-71
2022/04/01 01:07:00;;;;;;;16.65;12.93;;;3.40;99.90;;;;;;493968;241;27493;-72
2022/04/01 01:09:01;;;;;;;18.08;13.43;;;3.40;99.90;;;;;;493972;241;27485;-72
2022/04/01 01:11:02;;;;;;;15.40;12.68;;;3.40;99.90;;;;;;493996;241;27520;-71
2022/04/01 01:13:04;;;;;;;16.10;12.82;;;3.40;99.90;;;;;;493990;241;27522;-73
2022/04/01 01:15:05;;;;;;;19.12;13.65;;;3.40;99.90;;;;;;494098;241;27568;-72
2022/04/01 01:17:07;;;;;;;15.25;12.55;;;3.30;99.90;;;;;;494121;241;27972;-72
2022/04/01 01:19:07;;;;;;;17.52;13.07;;;3.30;99.90;;;;;;494074;241;28787;-71
2022/04/01 01:21:09;;;;;;;17.35;13.13;;;3.30;99.90;;;;;;493986;241;27477;-72
2022/04/01 01:23:12;;;;;;;14.45;11.57;;;3.40;99.90;;;;;;493952;241;27490;-73
2022/04/01 01:25:11;;;;;;;18.05;13.10;;;3.40;99.90;;;;;;493847;241;27544;-71
2022/04/01 01:27:13;;;;;;;17.48;13.70;;;3.30;99.90;;;;;;494007;241;27513;-72
2022/04/01 01:29:14;;;;;;;18.98;14.05;;;3.30;99.90;;;;;;493963;241;27502;-71
2022/04/01 01:31:15;;;;;;;17.95;13.38;;;3.40;99.90;;;;;;494001;241;27908;-72
2022/04/01 01:33:16;;;;;;;19.77;13.93;;;3.30;99.90;;;;;;493992;241;28014;-72
2022/04/01 01:35:17;;;;;;;20.30;14.90;;;3.30;99.90;;;;;;493973;241;27589;-71
2022/04/01 01:37:19;;;;;;;19.90;14.60;;;3.30;99.90;;;;;;493956;241;27485;-71
2022/04/01 01:39:20;;;;;;;20.23;15.15;;;3.20;99.90;;;;;;494002;238;27505;-74
2022/04/01 01:41:21;;;;;;;19.62;14.68;;;3.30;99.90;;;;;;493977;241;27536;-72
2022/04/01 01:43:22;;;;;;;19.08;14.63;;;3.30;99.90;;;;;;493987;241;27537;-72
2022/04/01 01:45:24;;;;;;;17.58;13.05;;;3.30;99.90;;;;;;493994;241;27552;-71
2022/04/01 01:47:25;;;;;;;19.55;14.10;;;3.30;99.90;;;;;;493994;241;27980;-71
2022/04/01 01:49:26;;;;;;;20.17;14.35;;;3.30;99.90;;;;;;493975;237;27992;-72
2022/04/01 01:56:07;;;;;;;17.87;13.50;;;3.30;99.90;;;;;;494004;241;27525;-73
2022/04/01 01:58:09;;;;;;;17.83;13.32;;;3.30;99.90;;;;;;493974;241;27501;-71
2022/04/01 02:00:13;;;;;;;16.75;13.60;;;3.40;99.90;;;;;;493950;241;27582;-71
2022/04/01 02:02:13;;;;;;;17.83;13.90;;;3.30;99.90;;;;;;493973;241;27521;-72
2022/04/01 02:04:15;;;;;;;18.87;14.48;;;3.30;99.90;;;;;;493985;241;27486;-73
2022/04/01 02:06:16;;;;;;;21.35;16.45;;;3.30;99.90;;;;;;493982;241;27533;-71
2022/04/01 02:08:17;;;;;;;19.98;14.82;;;3.20;99.90;;;;;;493980;241;27970;-72
2022/04/01 02:10:19;;;;;;;19.83;15.52;;;3.30;99.90;;;;;;494001;241;27943;-71
2022/04/01 02:12:20;;;;;;;20.20;15.63;;;3.30;99.90;;;;;;493961;237;27477;-71
2022/04/01 02:14:21;;;;;;;18.15;13.60;;;3.30;99.90;;;;;;494004;241;27498;-74
2022/04/01 02:16:22;;;;;;;21.08;15.60;;;3.30;99.90;;;;;;494002;241;27890;-71
2022/04/01 02:18:24;;;;;;;21.90;15.30;;;3.20;99.90;;;;;;493993;241;27505;-72
2022/04/01 02:20:25;;;;;;;22.40;16.20;;;3.20;99.90;;;;;;493968;241;27450;-71
2022/04/01 02:22:26;;;;;;;20.65;15.38;;;3.20;99.90;;;;;;493975;241;27941;-72
2022/04/01 02:24:27;;;;;;;21.52;14.93;;;3.20;99.90;;;;;;493994;241;28071;-73
2022/04/01 02:26:29;;;;;;;18.87;14.05;;;3.20;99.90;;;;;;493983;241;27463;-71
2022/04/01 02:28:30;;;;;;;22.10;15.23;;;3.30;99.90;;;;;;493969;241;27480;-72
2022/04/01 02:30:32;;;;;;;22.05;15.90;;;3.20;99.90;;;;;;493959;241;27568;-71
2022/04/01 02:32:34;;;;;;;22.02;15.68;;;3.20;99.90;;;;;;493962;241;27476;-72
2022/04/01 02:34:34;;;;;;;23.80;17.25;;;3.20;99.90;;;;;;493907;241;27537;-72
2022/04/01 02:36:35;;;;;;;25.37;17.37;;;3.20;99.90;;;;;;493995;241;27527;-71
2022/04/01 02:38:36;;;;;;;22.10;15.00;;;3.20;99.90;;;;;;493954;241;28087;-72
2022/04/01 02:40:37;;;;;;;19.45;14.95;;;3.20;99.90;;;;;;493984;241;28686;-71
2022/04/01 02:42:39;;;;;;;21.27;16.00;;;3.30;99.90;;;;;;493977;241;27532;-71
2022/04/01 02:44:40;;;;;;;24.42;16.45;;;3.20;99.90;;;;;;493982;241;27591;-73
2022/04/01 02:46:42;;;;;;;19.70;14.23;;;3.20;99.90;;;;;;493984;241;27530;-72
2022/04/01 02:48:42;;;;;;;22.83;16.23;;;3.20;99.90;;;;;;493927;241;27509;-71
2022/04/01 02:50:44;;;;;;;23.27;15.95;;;3.20;99.90;;;;;;493970;241;27498;-72
2022/04/01 02:52:45;;;;;;;22.62;15.40;;;3.20;99.90;;;;;;493982;241;27921;-72
2022/04/01 02:54:46;;;;;;;25.77;15.90;;;3.30;99.90;;;;;;493993;241;27975;-72
2022/04/01 02:56:47;;;;;;;21.33;14.82;;;3.20;99.90;;;;;;493960;241;27580;-71
2022/04/01 02:58:49;;;;;;;24.73;15.95;;;3.20;99.90;;;;;;493966;241;27504;-72
2022/04/01 03:00:50;;;;;;;19.65;14.10;;;3.20;99.90;;;;;;493764;239;27517;-71
2022/04/01 03:02:51;;;;;;;24.50;16.92;;;3.20;99.90;;;;;;493991;241;27456;-72
2022/04/01 03:04:52;;;;;;;23.20;15.25;;;3.20;99.90;;;;;;493984;241;27525;-71
2022/04/01 03:06:54;;;;;;;21.05;14.52;;;3.20;99.90;;;;;;493965;241;27493;-71
2022/04/01 03:08:55;;;;;;;25.83;16.17;;;3.20;99.90;;;;;;493955;241;27996;-71
2022/04/01 03:10:58;;;;;;;23.80;15.40;;;3.20;99.90;;;;;;493975;241;27931;-71
2022/04/01 03:12:57;;;;;;;23.12;16.10;;;3.20;99.90;;;;;;493835;241;27618;-72
2022/04/01 03:14:59;;;;;;;24.27;15.13;;;3.20;99.90;;;;;;493945;241;27518;-73
2022/04/01 03:17:00;;;;;;;23.92;16.05;;;3.20;99.90;;;;;;493947;241;27449;-71
2022/04/01 03:19:01;;;;;;;23.92;15.27;;;3.10;99.90;;;;;;493966;241;27504;-72
2022/04/01 03:21:03;;;;;;;26.80;16.70;;;3.10;99.90;;;;;;493982;237;27652;-74
2022/04/01 03:23:04;;;;;;;26.17;16.80;;;3.10;99.90;;;;;;493983;241;27996;-71
2022/04/01 03:25:06;;;;;;;23.75;15.80;;;3.10;99.90;;;;;;493988;241;27969;-72
2022/04/01 03:27:06;;;;;;;26.77;17.50;;;3.20;99.90;;;;;;493916;241;27470;-71
2022/04/01 03:29:08;;;;;;;30.00;17.35;;;3.10;99.90;;;;;;493974;241;27496;-72
2022/04/01 03:31:09;;;;;;;22.77;16.20;;;3.10;99.90;;;;;;494005;241;27497;-74
2022/04/01 03:33:10;;;;;;;25.00;16.20;;;3.10;99.90;;;;;;493972;241;27472;-72
2022/04/01 03:35:13;;;;;;;27.02;17.48;;;3.10;99.90;;;;;;493959;241;27630;-71
2022/04/01 03:37:13;;;;;;;27.02;16.58;;;3.10;99.90;;;;;;493881;241;27453;-71
2022/04/01 03:39:14;;;;;;;27.45;17.33;;;3.10;99.90;;;;;;493936;241;27945;-72
2022/04/01 03:41:15;;;;;;;26.27;16.40;;;3.10;99.90;;;;;;493951;241;28089;-72
2022/04/01 03:43:16;;;;;;;25.42;16.55;;;3.10;99.90;;;;;;493980;241;27465;-71
2022/04/01 03:45:18;;;;;;;24.83;16.60;;;3.00;99.90;;;;;;493951;241;27564;-73
2022/04/01 03:47:20;;;;;;;27.70;16.75;;;3.10;99.90;;;;;;494117;241;27470;-71
2022/04/01 03:49:21;;;;;;;29.15;18.48;;;3.00;99.90;;;;;;494036;241;27581;-72
2022/04/01 03:51:25;;;;;;;25.15;16.30;;;3.10;99.90;;;;;;493924;241;27501;-73
2022/04/01 03:53:25;;;;;;;29.40;17.83;;;3.10;99.90;;;;;;494002;241;27492;-72
2022/04/01 03:55:27;;;;;;;29.33;17.55;;;3.10;99.90;;;;;;493990;241;27462;-71
2022/04/01 03:57:28;;;;;;;30.25;17.60;;;3.00;99.90;;;;;;493967;241;27970;-72
2022/04/01 03:59:40;;;;;;;27.92;17.35;;;3.00;99.90;;;;;;493986;241;28688;-71
2022/04/01 04:01:30;;;;;;;26.33;16.92;;;3.00;99.90;;;;;;493012;241;27556;-71
2022/04/01 04:03:32;;;;;;;25.30;17.62;;;3.10;99.90;;;;;;493964;241;27508;-73
2022/04/01 04:05:33;;;;;;;28.65;17.75;;;3.00;99.90;;;;;;493847;241;27463;-72
2022/04/01 04:07:34;;;;;;;26.02;16.02;;;3.00;99.90;;;;;;493980;241;27584;-71
2022/04/01 04:09:35;;;;;;;27.70;17.08;;;3.10;99.90;;;;;;494011;241;27508;-74
2022/04/01 04:11:37;;;;;;;28.60;17.67;;;3.10;99.90;;;;;;493994;241;28041;-72
2022/04/01 04:13:38;;;;;;;28.30;17.77;;;3.10;99.90;;;;;;493917;241;29073;-72
2022/04/01 04:15:40;;;;;;;29.08;17.48;;;3.10;99.90;;;;;;493996;241;27453;-72
2022/04/01 04:17:41;;;;;;;28.98;17.83;;;3.10;99.90;;;;;;493923;241;27516;-72
2022/04/01 04:19:42;;;;;;;25.65;17.30;;;3.10;99.90;;;;;;494011;241;27505;-74
2022/04/01 04:21:43;;;;;;;29.05;17.85;;;3.10;99.90;;;;;;493966;241;27562;-72
2022/04/01 04:23:45;;;;;;;26.37;17.05;;;3.10;99.90;;;;;;493980;241;27512;-72
2022/04/01 04:25:45;;;;;;;26.42;16.65;;;3.10;99.90;;;;;;493966;241;27529;-71
2022/04/01 04:27:47;;;;;;;26.23;16.95;;;3.10;99.90;;;;;;493966;241;28051;-72
2022/04/01 04:29:48;;;;;;;23.30;16.17;;;3.10;99.90;;;;;;494016;241;28080;-74
2022/04/01 04:31:49;;;;;;;25.30;16.27;;;3.10;99.90;;;;;;493988;241;27457;-72
2022/04/01 04:33:51;;;;;;;27.35;17.00;;;3.00;99.90;;;;;;493970;241;27493;-72
2022/04/01 04:35:52;;;;;;;29.52;18.75;;;3.00;99.90;;;;;;493961;241;27450;-72
2022/04/01 04:37:53;;;;;;;30.37;18.25;;;3.00;99.90;;;;;;493981;241;27465;-72
2022/04/01 04:39:54;;;;;;;27.95;17.83;;;3.00;99.90;;;;;;493994;241;27541;-73
2022/04/01 04:41:56;;;;;;;27.37;17.95;;;3.00;99.90;;;;;;493954;241;27479;-71
2022/04/01 04:43:58;;;;;;;27.80;17.75;;;3.00;99.90;;;;;;493980;241;28087;-72
2022/04/01 04:45:58;;;;;;;29.80;18.42;;;3.00;99.90;;;;;;493944;241;28724;-71
2022/04/01 04:47:59;;;;;;;27.02;18.17;;;3.00;99.90;;;;;;493989;241;27452;-71
2022/04/01 04:50:01;;;;;;;27.75;18.90;;;3.00;99.90;;;;;;493977;241;27564;-72
2022/04/01 04:52:02;;;;;;;31.12;19.75;;;2.90;99.90;;;;;;493994;241;27557;-71
2022/04/01 04:54:03;;;;;;;32.10;19.92;;;2.90;99.90;;;;;;493933;241;27509;-72
2022/04/01 04:56:04;;;;;;;25.98;16.90;;;2.90;99.90;;;;;;494013;241;27605;-74
2022/04/01 04:58:06;;;;;;;28.67;19.30;;;2.90;99.90;;;;;;494006;241;27930;-71
2022/04/01 05:00:07;;;;;;;25.70;17.20;;;3.00;99.90;;;;;;493978;241;28087;-73
2022/04/01 05:02:08;;;;;;;27.02;17.48;;;3.00;99.90;;;;;;493971;241;27484;-71
2022/04/01 05:04:09;;;;;;;27.83;18.80;;;3.00;99.90;;;;;;493949;241;27509;-71
2022/04/01 05:06:11;;;;;;;27.15;18.35;;;2.90;99.90;;;;;;493992;237;27530;-72
2022/04/01 05:08:12;;;;;;;26.40;17.95;;;2.90;99.90;;;;;;493968;241;27909;-73
2022/04/01 05:10:16;;;;;;;24.10;16.73;;;2.90;99.90;;;;;;493991;241;27624;-72
2022/04/01 05:12:16;;;;;;;26.87;17.42;;;2.90;99.90;;;;;;493736;241;27625;-71
2022/04/01 05:14:16;;;;;;;24.67;17.15;;;2.90;99.90;;;;;;493834;241;27945;-71
2022/04/01 05:16:17;;;;;;;25.02;17.33;;;2.90;99.90;;;;;;493999;241;28051;-74
2022/04/01 05:18:18;;;;;;;26.70;17.27;;;3.00;99.90;;;;;;494022;241;27549;-72
2022/04/01 05:20:19;;;;;;;24.50;15.80;;;2.90;99.90;;;;;;494000;241;27580;-72
2022/04/01 05:22:21;;;;;;;20.25;16.20;;;3.00;99.90;;;;;;493959;241;27488;-71
2022/04/01 05:24:22;;;;;;;24.05;17.75;;;3.00;99.90;;;;;;493976;241;27509;-72
2022/04/01 05:26:23;;;;;;;22.25;17.25;;;3.00;99.90;;;;;;493995;241;27986;-73
2022/04/01 05:28:25;;;;;;;24.33;17.62;;;3.00;99.90;;;;;;494006;241;27495;-73
2022/04/01 05:30:26;;;;;;;26.15;17.45;;;3.00;99.90;;;;;;493971;241;27996;-72
2022/04/01 05:32:28;;;;;;;24.87;18.10;;;3.00;99.90;;;;;;493984;241;27935;-72
2022/04/01 05:34:28;;;;;;;24.92;18.33;;;3.00;99.90;;;;;;493961;241;27497;-72
2022/04/01 05:36:30;;;;;;;27.15;18.08;;;2.90;99.90;;;;;;493990;241;27526;-73
2022/04/01 05:38:31;;;;;;;24.20;17.55;;;2.90;99.90;;;;;;493950;241;27457;-71
2022/04/01 05:40:32;;;;;;;26.05;19.35;;;3.00;99.90;;;;;;493975;241;27522;-72
2022/04/01 05:42:33;;;;;;;25.30;18.92;;;2.90;99.90;;;;;;493968;241;27458;-71
2022/04/01 05:44:35;;;;;;;25.27;18.30;;;2.90;99.90;;;;;;493989;241;27968;-72
2022/04/01 05:46:36;;;;;;;25.37;19.15;;;3.00;99.90;;;;;;494002;241;28140;-73
2022/04/01 05:48:37;;;;;;;27.45;20.25;;;2.80;99.90;;;;;;494000;241;27461;-71
2022/04/01 05:50:38;;;;;;;23.87;17.67;;;2.80;99.90;;;;;;494000;241;27524;-72
2022/04/01 05:52:40;;;;;;;28.20;20.35;;;2.80;99.90;;;;;;493973;241;27457;-71
2022/04/01 05:54:41;;;;;;;27.87;19.50;;;2.80;99.90;;;;;;494003;241;27489;-72
2022/04/01 05:56:43;;;;;;;28.70;20.83;;;2.80;99.90;;;;;;494008;241;27648;-73
2022/04/01 05:58:43;;;;;;;24.77;18.17;;;2.90;99.90;;;;;;493939;241;27451;-72
2022/04/01 06:00:46;;;;;;;26.60;18.67;;;2.90;99.90;;;;;;493998;241;27965;-72
2022/04/01 06:02:46;;;;;;;29.52;20.48;;;2.90;99.90;;;;;;493851;241;27912;-71
2022/04/01 06:04:47;;;;;;;27.50;20.20;;;2.70;99.90;;;;;;493982;241;27510;-71
2022/04/01 06:06:48;;;;;;;29.12;20.85;;;2.80;99.90;;;;;;494004;241;27541;-73
2022/04/01 06:08:50;;;;;;;27.20;19.37;;;2.80;99.90;;;;;;493980;241;27461;-71
2022/04/01 06:10:51;;;;;;;25.12;17.75;;;2.80;99.90;;;;;;493976;241;27606;-72
2022/04/01 06:12:52;;;;;;;25.30;18.67;;;2.80;99.90;;;;;;493948;241;27457;-71
2022/04/01 06:14:53;;;;;;;26.58;19.45;;;2.80;99.90;;;;;;493919;241;27481;-71
2022/04/01 06:16:55;;;;;;;20.88;16.48;;;2.70;99.90;;;;;;493932;241;28086;-73
2022/04/01 06:18:56;;;;;;;23.60;16.12;;;2.70;99.90;;;;;;494020;241;27965;-71
2022/04/01 06:20:57;;;;;;;23.50;16.70;;;2.80;99.90;;;;;;494291;241;27498;-71
2022/04/01 06:22:58;;;;;;;23.02;17.08;;;2.80;99.90;;;;;;493864;241;27472;-72
2022/04/01 06:25:00;;;;;;;24.52;17.33;;;2.80;99.90;;;;;;493941;241;27497;-72
2022/04/01 06:27:01;;;;;;;24.98;17.67;;;2.70;99.90;;;;;;493963;241;27520;-73
2022/04/01 06:29:02;;;;;;;25.70;18.02;;;2.60;99.90;;;;;;493956;241;27463;-72
2022/04/01 06:31:03;;;;;;;27.10;18.08;;;2.70;99.90;;;;;;493959;241;28072;-72
2022/04/01 06:33:05;;;;;;;20.52;15.55;;;2.70;99.90;;;;;;493952;241;28682;-72
2022/04/01 06:35:06;;;;;;;21.85;16.45;;;2.70;99.90;;;;;;493959;241;27568;-72
2022/04/01 06:37:07;;;;;;;27.67;19.58;;;2.70;99.90;;;;;;493981;241;27501;-72
2022/04/01 06:39:08;;;;;;;24.05;17.90;;;2.50;99.90;;;;;;494006;241;27541;-72
2022/04/01 06:41:10;;;;;;;25.65;18.98;;;2.50;99.90;;;;;;493978;241;27502;-73
2022/04/01 06:43:11;;;;;;;25.30;18.62;;;2.60;99.90;;;;;;493951;241;27478;-71
2022/04/01 06:45:15;;;;;;;26.17;18.92;;;2.70;99.90;;;;;;493980;241;27498;-72
2022/04/01 06:47:14;;;;;;;25.75;18.40;;;2.60;99.90;;;;;;493730;241;27983;-74
2022/04/01 06:49:15;;;;;;;23.92;18.55;;;2.60;99.90;;;;;;493976;241;28012;-72
2022/04/01 06:51:16;;;;;;;22.25;16.50;;;2.60;99.90;;;;;;493988;241;27608;-72
2022/04/01 06:53:17;;;;;;;25.98;19.42;;;2.70;99.90;;;;;;493970;241;27462;-72
2022/04/01 06:55:18;;;;;;;25.98;19.05;;;2.60;99.90;;;;;;493971;241;27553;-72
2022/04/01 06:57:20;;;;;;;22.62;17.92;;;2.40;99.90;;;;;;493972;237;27591;-72
2022/04/01 06:59:21;;;;;;;20.23;17.17;;;2.60;99.90;;;;;;493991;241;27467;-72
2022/04/01 07:01:22;;;;;;;22.98;16.75;;;2.70;99.90;;;;;;493987;241;27501;-72
2022/04/01 07:03:24;;;;;;;23.73;17.37;;;2.80;99.90;;;;;;493976;241;27953;-71
2022/04/01 07:05:25;;;;;;;22.05;17.40;;;2.60;99.90;;;;;;493980;241;28003;-72
2022/04/01 07:07:26;;;;;;;21.65;15.60;;;2.60;99.90;;;;;;493979;241;27490;-74
2022/04/01 07:09:27;;;;;;;21.75;15.85;;;2.50;99.90;;;;;;493997;241;27550;-72
2022/04/01 07:11:29;;;;;;;24.12;17.33;;;2.50;99.90;;;;;;494009;241;27504;-72
2022/04/01 07:13:30;;;;;;;20.25;15.55;;;2.40;99.90;;;;;;493997;241;27474;-72
2022/04/01 07:15:31;;;;;;;21.20;15.70;;;2.50;99.90;;;;;;494014;241;27546;-71
2022/04/01 07:17:32;;;;;;;19.60;14.30;;;2.60;99.90;;;;;;494002;241;27963;-73
2022/04/01 07:19:34;;;;;;;18.10;14.38;;;2.60;99.90;;;;;;493998;241;28032;-72
2022/04/01 07:21:35;;;;;;;19.90;13.35;;;2.70;99.90;;;;;;493991;241;27504;-72
2022/04/01 07:23:37;;;;;;;19.75;14.80;;;2.60;99.90;;;;;;493984;241;27481;-73
2022/04/01 07:25:37;;;;;;;18.10;14.05;;;2.60;99.90;;;;;;493965;241;27485;-72
2022/04/01 07:27:39;;;;;;;18.35;14.43;;;2.60;99.90;;;;;;493991;241;27501;-73
2022/04/01 07:29:40;;;;;;;17.20;13.52;;;2.50;99.90;;;;;;494001;241;27477;-72
2022/04/01 07:34:00;;;;;;;16.90;13.10;;;2.60;99.90;;;;;;493963;241;27546;-71
2022/04/01 07:36:02;;;;;;;18.20;13.73;;;2.60;99.90;;;;;;493961;241;27604;-71
2022/04/01 07:38:03;;;;;;;17.75;12.60;;;2.60;99.90;;;;;;493959;241;27508;-73
2022/04/01 07:40:05;;;;;;;16.95;13.02;;;2.60;99.90;;;;;;493936;241;27950;-71
2022/04/01 07:42:06;;;;;;;18.00;13.55;;;2.60;99.90;;;;;;493937;241;27991;-71
2022/04/01 07:44:07;;;;;;;16.85;12.80;;;2.60;99.90;;;;;;493932;241;27513;-75
2022/04/01 07:46:08;;;;;;;17.52;13.73;;;2.60;99.90;;;;;;493987;241;27457;-72
2022/04/01 07:48:09;;;;;;;18.27;14.13;;;2.50;99.90;;;;;;493967;241;27488;-72
2022/04/01 07:50:11;;;;;;;18.30;14.15;;;2.40;99.90;;;;;;493956;241;27553;-72
2022/04/01 07:52:12;;;;;;;20.23;14.60;;;2.50;99.90;;;;;;493961;241;27510;-72
2022/04/01 07:54:13;;;;;;;20.33;14.50;;;2.30;99.90;;;;;;493970;241;27578;-75
2022/04/01 07:56:14;;;;;;;18.27;14.45;;;2.40;99.90;;;;;;493973;241;28091;-72
2022/04/01 07:58:16;;;;;;;18.20;14.00;;;2.50;99.90;;;;;;493984;237;29086;-73
2022/04/01 08:00:17;;;;;;;17.48;14.73;;;2.60;99.90;;;;;;493994;241;27547;-72
2022/04/01 08:02:18;;;;;;;17.70;13.55;;;2.60;99.90;;;;;;493975;241;27664;-72
2022/04/01 08:04:20;;;;;;;16.80;12.65;;;2.70;99.90;;;;;;493982;241;27894;-75
2022/04/01 08:06:21;;;;;;;14.05;11.90;;;2.70;99.90;;;;;;494013;241;27473;-72
2022/04/01 08:08:22;;;;;;;15.25;12.00;;;2.70;99.90;;;;;;493965;241;27500;-72
2022/04/01 08:10:23;;;;;;;14.05;11.15;;;2.70;99.90;;;;;;493964;241;27471;-72
2022/04/01 08:12:24;;;;;;;13.50;11.10;;;2.70;99.90;;;;;;493965;241;27987;-72
2022/04/01 08:14:26;;;;;;;15.30;12.10;;;2.80;99.90;;;;;;493965;241;28012;-75
2022/04/01 08:16:27;;;;;;;14.20;11.15;;;2.80;99.90;;;;;;493990;241;27469;-72
2022/04/01 08:18:28;;;;;;;15.43;12.77;;;2.70;99.90;;;;;;493992;241;27555;-72
2022/04/01 08:20:30;;;;;;;13.05;11.48;;;2.40;99.90;;;;;;493975;241;27494;-72
2022/04/01 08:22:31;;;;;;;19.20;13.50;;;2.50;99.90;;;;;;493970;241;27508;-71
2022/04/01 08:24:32;;;;;;;14.00;11.95;;;2.70;99.90;;;;;;494015;241;27508;-75
2022/04/01 08:26:33;;;;;;;16.52;12.07;;;2.80;99.90;;;;;;494025;241;27998;-71
2022/04/01 08:28:35;;;;;;;13.13;11.23;;;2.90;99.90;;;;;;493974;241;28023;-73
2022/04/01 08:30:36;;;;;;;13.52;11.10;;;3.20;99.90;;;;;;493938;241;27553;-72
2022/04/01 08:32:37;;;;;;;13.23;10.90;;;3.30;99.90;;;;;;494010;241;27512;-72
2022/04/01 08:34:38;;;;;;;12.50;10.23;;;3.50;99.90;;;;;;493998;241;27600;-75
2022/04/01 08:36:39;;;;;;;12.40;9.90;;;3.40;99.90;;;;;;494007;241;27564;-71
2022/04/01 08:38:41;;;;;;;11.52;10.20;;;3.40;99.90;;;;;;494008;241;27504;-72
2022/04/01 08:40:42;;;;;;;12.60;11.30;;;3.40;99.90;;;;;;494024;241;27911;-72
2022/04/01 08:42:43;;;;;;;13.70;11.27;;;3.30;99.90;;;;;;494007;241;27954;-72
2022/04/01 08:44:44;;;;;;;11.85;10.63;;;3.10;99.90;;;;;;494040;241;27520;-74
2022/04/01 08:46:46;;;;;;;12.93;10.40;;;3.30;99.90;;;;;;494025;241;27461;-72
2022/04/01 08:48:47;;;;;;;11.18;9.35;;;3.50;99.90;;;;;;494009;241;27617;-72
2022/04/01 08:50:50;;;;;;;12.32;10.85;;;3.50;99.90;;;;;;494044;241;27499;-71
2022/04/01 08:52:49;;;;;;;10.35;8.82;;;3.40;99.90;;;;;;493973;241;27465;-72
2022/04/01 08:54:51;;;;;;;12.77;9.75;;;3.50;99.90;;;;;;494056;241;27972;-73
2022/04/01 08:56:52;;;;;;;12.27;10.52;;;3.30;99.90;;;;;;494016;241;27919;-72
2022/04/01 08:58:53;;;;;;;11.27;10.10;;;3.20;99.90;;;;;;494015;241;27534;-73
2022/04/01 09:00:55;;;;;;;11.45;9.68;;;3.30;99.90;;;;;;494029;241;27633;-74
2022/04/01 09:02:56;;;;;;;11.30;9.85;;;3.40;99.90;;;;;;494042;241;27465;-72
2022/04/01 09:04:57;;;;;;;11.70;9.20;;;3.70;99.90;;;;;;493971;241;27506;-72
2022/04/01 09:06:58;;;;;;;10.00;8.90;;;3.70;99.90;;;;;;494009;241;27461;-72
2022/04/01 09:09:00;;;;;;;10.02;8.95;;;3.80;99.90;;;;;;494013;241;27515;-72
2022/04/01 09:11:04;;;;;;;13.50;8.95;;;4.00;99.90;;;;;;494015;241;28186;-75
2022/04/01 09:13:05;;;;;;;10.20;9.10;;;4.00;99.90;;;;;;494030;241;28065;-71
2022/04/01 09:15:08;;;;;;;11.68;10.45;;;4.00;99.90;;;;;;494042;237;28029;-72
2022/04/01 09:17:07;;;;;;;10.27;9.18;;;4.10;99.90;;;;;;493890;241;27520;-73
2022/04/01 09:19:09;;;;;;;10.20;9.13;;;4.00;99.90;;;;;;494006;241;27498;-72
2022/04/01 09:21:10;;;;;;;11.10;9.82;;;3.80;99.90;;;;;;494055;241;27509;-72
2022/04/01 09:23:11;;;;;;;11.32;9.90;;;3.50;99.90;;;;;;494024;241;27558;-75
2022/04/01 09:25:12;;;;;;;10.90;9.80;;;3.50;99.90;;;;;;494023;241;27926;-72
2022/04/01 09:27:14;;;;;;;10.65;9.55;;;3.60;99.90;;;;;;494015;241;28000;-72
2022/04/01 09:29:15;;;;;;;10.90;9.90;;;3.60;99.90;;;;;;493997;241;27617;-72
2022/04/01 09:31:17;;;;;;;11.23;10.13;;;3.60;99.90;;;;;;494002;241;27501;-72
2022/04/01 09:33:17;;;;;;;12.45;10.40;;;3.60;99.90;;;;;;494000;241;27505;-74
2022/04/01 09:35:20;;;;;;;10.13;8.93;;;3.80;99.90;;;;;;494014;241;27565;-72
2022/04/01 09:37:20;;;;;;;11.10;9.15;;;3.70;99.90;;;;;;493974;241;28069;-72
2022/04/01 09:39:21;;;;;;;12.23;10.00;;;3.70;99.90;;;;;;493991;241;27924;-71
2022/04/01 09:41:23;;;;;;;10.50;9.40;;;3.70;99.90;;;;;;493988;241;27499;-72
2022/04/01 09:43:24;;;;;;;10.77;9.68;;;3.30;99.90;;;;;;493999;238;27497;-75
2022/04/01 09:45:25;;;;;;;12.10;9.68;;;3.10;99.90;;;;;;494014;241;27516;-72
2022/04/01 09:47:26;;;;;;;12.98;10.15;;;3.00;99.90;;;;;;493990;241;27493;-72
2022/04/01 09:49:27;;;;;;;12.00;9.63;;;3.10;99.90;;;;;;493967;241;27942;-71
2022/04/01 09:51:29;;;;;;;15.70;10.23;;;3.20;99.90;;;;;;493977;241;28072;-73
2022/04/01 09:53:30;;;;;;;11.93;9.40;;;3.20;99.90;;;;;;494008;241;27516;-74
2022/04/01 09:55:31;;;;;;;9.60;8.60;;;2.90;99.90;;;;;;494012;241;27569;-71
2022/04/01 09:57:33;;;;;;;11.70;9.60;;;3.00;99.90;;;;;;493996;241;27485;-72
2022/04/01 09:59:34;;;;;;;10.90;9.80;;;3.10;99.90;;;;;;493976;241;27541;-71
2022/04/01 10:01:35;;;;;;;10.80;8.52;;;2.70;99.90;;;;;;493968;241;27628;-72
2022/04/01 10:03:36;;;;;;;11.52;9.65;;;3.00;99.90;;;;;;493973;241;27605;-73
2022/04/01 10:05:38;;;;;;;13.40;10.43;;;3.00;99.90;;;;;;493975;241;27478;-72
2022/04/01 10:07:39;;;;;;;12.98;10.20;;;3.00;99.90;;;;;;493937;241;27965;-72
2022/04/01 10:09:40;;;;;;;11.88;9.90;;;2.90;99.90;;;;;;493973;241;27921;-72
2022/04/01 10:11:41;;;;;;;12.98;10.30;;;2.80;99.90;;;;;;493973;241;28026;-71
2022/04/01 10:13:43;;;;;;;13.60;9.95;;;2.70;99.90;;;;;;493975;241;27500;-73
2022/04/01 10:15:44;;;;;;;12.55;10.05;;;2.70;99.90;;;;;;493984;241;27457;-71
2022/04/01 10:17:45;;;;;;;11.82;10.63;;;2.50;99.90;;;;;;493945;241;27512;-72
2022/04/01 10:19:46;;;;;;;16.30;11.20;;;2.60;99.90;;;;;;493970;241;27494;-71
2022/04/01 10:21:48;;;;;;;15.70;10.90;;;2.40;99.90;;;;;;493975;237;28031;-72
2022/04/01 10:23:49;;;;;;;13.23;10.35;;;2.40;99.90;;;;;;493972;241;27993;-73
2022/04/01 10:25:50;;;;;;;13.25;11.27;;;2.40;99.90;;;;;;493999;241;27927;-71
2022/04/01 10:27:51;;;;;;;12.73;10.70;;;2.40;99.90;;;;;;493968;241;27600;-71
2022/04/01 10:29:53;;;;;;;12.82;9.75;;;2.30;99.90;;;;;;493955;241;27507;-72